createdAt,value
2019-03-05T00:00:47.293Z,99587.88
2019-03-05T00:03:26.216Z,99590.56
2019-03-05T00:06:03.887Z,99568.06
2019-03-05T00:08:42.298Z,99568.02
2019-03-05T00:11:17.850Z,99562.80
2019-03-05T00:13:53.600Z,99566.47
2019-03-05T00:16:28.460Z,99572.13
2019-03-05T00:19:03.443Z,99551.31
2019-03-05T00:21:38.494Z,99553.39
2019-03-05T00:25:04.134Z,99548.13
2019-03-05T00:28:22.243Z,99582.36
2019-03-05T00:31:30.235Z,99624.88
2019-03-05T00:35:26.553Z,99625.07
2019-03-05T00:38:37.602Z,99621.53
2019-03-05T00:41:52.490Z,99624.73
2019-03-05T00:45:24.638Z,99634.48
2019-03-05T00:48:58.478Z,99634.87
2019-03-05T00:52:38.359Z,99628.50
2019-03-05T00:56:19.190Z,99626.77
2019-03-05T00:59:37.950Z,99627.33
2019-03-05T01:02:49.402Z,99634.21
2019-03-05T01:06:24.318Z,99641.53
2019-03-05T01:08:59.287Z,99635.47
2019-03-05T01:11:35.530Z,99630.11
2019-03-05T01:14:11.281Z,99631.88
2019-03-05T01:16:46.700Z,99639.27
2019-03-05T01:19:21.598Z,99638.62
2019-03-05T01:21:56.541Z,99642.17
2019-03-05T01:24:31.420Z,99642.47
2019-03-05T01:27:06.767Z,99645.09
2019-03-05T01:29:41.617Z,99644.84
2019-03-05T01:32:38.094Z,99646.39
2019-03-05T01:35:30.581Z,99645.13
2019-03-05T01:38:05.511Z,99639.64
2019-03-05T01:40:43.857Z,99647.31
2019-03-05T01:43:18.720Z,99647.89
2019-03-05T01:45:53.694Z,99651.58
2019-03-05T01:48:28.549Z,99636.75
2019-03-05T01:51:04.267Z,99650.33
2019-03-05T01:53:39.238Z,99657.08
2019-03-05T01:56:14.163Z,99658.93
2019-03-05T01:58:49.113Z,99660.22
2019-03-05T02:01:23.951Z,99658.33
2019-03-05T02:03:58.832Z,99659.41
2019-03-05T02:06:33.879Z,99665.25
2019-03-05T02:09:10.435Z,99661.09
2019-03-05T02:11:45.691Z,99667.91
2019-03-05T02:14:20.449Z,99673.66
2019-03-05T02:16:55.293Z,99675.50
2019-03-05T02:19:55.291Z,99668.91
2019-03-05T02:22:43.751Z,99671.72
2019-03-05T02:25:46.291Z,99685.06
2019-03-05T02:28:58.627Z,99687.47
2019-03-05T02:32:46.310Z,99680.38
2019-03-05T02:36:00.249Z,99684.09
2019-03-05T02:39:29.691Z,99698.69
2019-03-05T02:42:41.893Z,99704.48
2019-03-05T02:45:42.066Z,99706.08
2019-03-05T02:49:09.659Z,99704.73
2019-03-05T02:52:54.000Z,99703.41
2019-03-05T02:56:15.630Z,99709.67
2019-03-05T02:58:47.959Z,99714.27
2019-03-05T03:01:34.294Z,99715.11
2019-03-05T03:04:13.633Z,99717.66
2019-03-05T03:06:48.473Z,99727.47
2019-03-05T03:10:12.024Z,99753.70
2019-03-05T03:12:47.029Z,99758.90
2019-03-05T03:15:23.469Z,99753.86
2019-03-05T03:17:58.216Z,99746.66
2019-03-05T03:20:33.937Z,99744.36
2019-03-05T03:23:08.842Z,99743.20
2019-03-05T03:25:43.678Z,99749.63
2019-03-05T03:28:18.733Z,99743.25
2019-03-05T03:30:53.590Z,99748.90
2019-03-05T03:33:28.362Z,99752.36
2019-03-05T03:36:03.207Z,99753.02
2019-03-05T03:38:38.068Z,99750.88
2019-03-05T03:41:12.917Z,99797.39
2019-03-05T03:43:47.690Z,99811.76
2019-03-05T03:46:22.568Z,99777.53
2019-03-05T03:48:57.457Z,99775.03
2019-03-05T03:51:32.711Z,99791.77
2019-03-05T03:54:07.690Z,99797.13
2019-03-05T03:56:42.828Z,99786.73
2019-03-05T03:59:25.204Z,99798.49
2019-03-05T04:01:59.939Z,99774.64
2019-03-05T04:04:35.042Z,99797.72
2019-03-05T04:07:09.798Z,99794.23
2019-03-05T04:09:44.692Z,99782.25
2019-03-05T04:12:19.419Z,99788.74
2019-03-05T04:14:56.853Z,99782.59
2019-03-05T04:17:34.481Z,99759.73
2019-03-05T04:20:15.773Z,99776.33
2019-03-05T04:22:54.237Z,99768.84
2019-03-05T04:25:29.785Z,99778.16
2019-03-05T04:28:19.470Z,99782.30
2019-03-05T04:30:54.693Z,99783.36
2019-03-05T04:33:49.324Z,99800.48
2019-03-05T04:36:42.691Z,99796.34
2019-03-05T04:39:22.023Z,99796.05
2019-03-05T04:41:58.193Z,99794.41
2019-03-05T04:46:06.119Z,99799.84
2019-03-05T04:48:43.702Z,99801.92
2019-03-05T04:51:27.306Z,99806.30
2019-03-05T04:54:02.285Z,99807.86
2019-03-05T04:56:37.086Z,99815.38
2019-03-05T04:59:11.975Z,99815.11
2019-03-05T05:01:48.936Z,99811.81
2019-03-05T05:04:23.880Z,99816.48
2019-03-05T05:06:58.913Z,99818.81
2019-03-05T05:09:33.739Z,99812.97
2019-03-05T05:12:08.653Z,99827.60
2019-03-05T05:14:43.487Z,99824.08
2019-03-05T05:17:18.401Z,99826.19
2019-03-05T05:19:53.267Z,99818.30
2019-03-05T05:22:28.205Z,99823.53
2019-03-05T05:25:04.589Z,99829.58
2019-03-05T05:27:39.495Z,99827.50
2019-03-05T05:30:35.689Z,99842.30
2019-03-05T05:33:10.729Z,99842.77
2019-03-05T05:35:45.614Z,99837.99
2019-03-05T05:38:20.525Z,99839.08
2019-03-05T05:40:56.924Z,99837.34
2019-03-05T05:43:32.908Z,99846.55
2019-03-05T05:46:07.781Z,99847.95
2019-03-05T05:48:42.689Z,99844.44
2019-03-05T05:51:17.571Z,99854.25
2019-03-05T05:53:52.543Z,99849.63
2019-03-05T05:56:27.401Z,99856.20
2019-03-05T05:59:02.299Z,99852.19
2019-03-05T06:01:37.318Z,99849.81
2019-03-05T06:04:14.687Z,99862.71
2019-03-05T06:06:50.893Z,99869.73
2019-03-05T06:09:26.267Z,99872.89
2019-03-05T06:12:01.332Z,99871.36
2019-03-05T06:14:36.237Z,99863.69
2019-03-05T06:17:11.313Z,99874.86
2019-03-05T06:19:46.210Z,99874.23
2019-03-05T06:22:21.075Z,99870.43
2019-03-05T06:24:55.925Z,99878.05
2019-03-05T06:27:30.776Z,99883.92
2019-03-05T06:30:06.323Z,99888.20
2019-03-05T06:32:41.285Z,99889.34
2019-03-05T06:35:16.160Z,99886.55
2019-03-05T06:37:51.987Z,99891.12
2019-03-05T06:40:27.017Z,99887.73
2019-03-05T06:43:02.981Z,99886.02
2019-03-05T06:45:38.174Z,99893.36
2019-03-05T06:48:13.104Z,99902.73
2019-03-05T06:50:48.381Z,99906.22
2019-03-05T06:53:38.473Z,99912.33
2019-03-05T06:56:37.062Z,99921.59
2019-03-05T06:59:13.538Z,99923.39
2019-03-05T07:01:48.463Z,99922.10
2019-03-05T07:04:24.531Z,99924.37
2019-03-05T07:07:00.875Z,99930.71
2019-03-05T07:10:18.849Z,99937.67
2019-03-05T07:13:23.177Z,99939.72
2019-03-05T07:16:39.732Z,99937.85
2019-03-05T07:19:58.493Z,99949.05
2019-03-05T07:23:12.438Z,99945.20
2019-03-05T07:25:48.334Z,99950.77
2019-03-05T07:28:23.296Z,99944.48
2019-03-05T07:30:59.045Z,99949.34
2019-03-05T07:33:34.022Z,99956.13
2019-03-05T07:36:09.001Z,99961.08
2019-03-05T07:38:45.764Z,99966.05
2019-03-05T07:41:20.638Z,99966.70
2019-03-05T07:43:58.336Z,99971.39
2019-03-05T07:46:33.311Z,99974.12
2019-03-05T07:49:08.432Z,99979.83
2019-03-05T07:51:43.409Z,99979.08
2019-03-05T07:54:18.374Z,99973.70
2019-03-05T07:56:53.524Z,99990.78
2019-03-05T07:59:29.334Z,99996.72
2019-03-05T08:02:04.403Z,99991.59
2019-03-05T08:04:40.095Z,100000.33
2019-03-05T08:07:15.038Z,100008.23
2019-03-05T08:09:50.541Z,100008.02
2019-03-05T08:12:45.582Z,100019.03
2019-03-05T08:16:37.469Z,100021.86
2019-03-05T08:19:12.382Z,100024.68
2019-03-05T08:21:47.313Z,100027.73
2019-03-05T08:24:23.626Z,100026.84
2019-03-05T08:26:58.953Z,100036.03
2019-03-05T08:29:33.913Z,100029.53
2019-03-05T08:32:08.802Z,100033.91
2019-03-05T08:34:43.779Z,100033.19
2019-03-05T08:37:18.805Z,100039.13
2019-03-05T08:39:53.747Z,100041.30
2019-03-05T08:42:28.606Z,100036.88
2019-03-05T08:45:03.520Z,100058.47
2019-03-05T08:47:38.656Z,100051.00
2019-03-05T08:50:14.159Z,100050.64
2019-03-05T08:52:49.390Z,100065.92
2019-03-05T08:55:24.476Z,100057.92
2019-03-05T08:57:59.526Z,100066.23
2019-03-05T09:00:38.498Z,100066.38
2019-03-05T09:03:13.585Z,100068.28
2019-03-05T09:05:48.676Z,100081.69
2019-03-05T09:08:24.110Z,100083.47
2019-03-05T09:11:01.242Z,100084.87
2019-03-05T09:13:36.548Z,100081.77
2019-03-05T09:16:12.162Z,100088.79
2019-03-05T09:18:47.158Z,100087.13
2019-03-05T09:21:22.342Z,100091.58
2019-03-05T09:23:57.546Z,100100.67
2019-03-05T09:26:33.400Z,100107.40
2019-03-05T09:29:08.396Z,100092.83
2019-03-05T09:31:44.347Z,100102.02
2019-03-05T09:34:19.462Z,100099.81
2019-03-05T09:36:55.255Z,100104.02
2019-03-05T09:39:30.137Z,100097.63
2019-03-05T09:42:05.762Z,100105.55
2019-03-05T09:44:41.023Z,100114.00
2019-03-05T09:47:15.967Z,100112.86
2019-03-05T09:49:50.891Z,100115.11
2019-03-05T09:52:25.837Z,100128.00
2019-03-05T09:55:02.375Z,100118.55
2019-03-05T09:57:40.010Z,100116.76
2019-03-05T10:00:20.438Z,100131.66
2019-03-05T10:02:55.618Z,100108.95
2019-03-05T10:05:32.060Z,100113.00
2019-03-05T10:08:07.392Z,100108.70
2019-03-05T10:10:42.524Z,100124.36
2019-03-05T10:13:17.878Z,100118.97
2019-03-05T10:15:53.580Z,100121.59
2019-03-05T10:18:29.008Z,100119.20
2019-03-05T10:21:04.380Z,100119.48
2019-03-05T10:23:40.552Z,100130.47
2019-03-05T10:26:15.568Z,100126.36
2019-03-05T10:28:50.559Z,100126.34
2019-03-05T10:31:25.839Z,100137.78
2019-03-05T10:34:00.890Z,100141.47
2019-03-05T10:36:36.015Z,100149.67
2019-03-05T10:39:30.948Z,100147.48
2019-03-05T10:42:05.290Z,100153.59
2019-03-05T10:44:40.339Z,100160.92
2019-03-05T10:47:16.161Z,100165.24
2019-03-05T10:49:51.236Z,100164.47
2019-03-05T10:52:26.220Z,100174.88
2019-03-05T10:55:03.510Z,100169.60
2019-03-05T10:57:38.620Z,100185.35
2019-03-05T11:00:18.912Z,100183.47
2019-03-05T11:02:55.108Z,100181.47
2019-03-05T11:05:34.513Z,100176.35
2019-03-05T11:08:15.970Z,100182.80
2019-03-05T11:10:52.336Z,100193.05
2019-03-05T11:13:27.496Z,100193.39
2019-03-05T11:16:05.008Z,100190.98
2019-03-05T11:18:40.252Z,100209.86
2019-03-05T11:21:15.200Z,100200.72
2019-03-05T11:23:50.092Z,100198.59
2019-03-05T11:26:25.214Z,100206.36
2019-03-05T11:29:00.116Z,100207.73
2019-03-05T11:31:35.132Z,100211.62
2019-03-05T11:34:10.262Z,100217.00
2019-03-05T11:36:45.181Z,100219.27
2019-03-05T11:39:22.092Z,100221.86
2019-03-05T11:41:57.146Z,100225.33
2019-03-05T11:44:32.610Z,100232.33
2019-03-05T11:47:07.768Z,100230.31
2019-03-05T11:49:43.095Z,100236.16
2019-03-05T11:52:18.093Z,100237.94
2019-03-05T11:54:52.996Z,100251.75
2019-03-05T11:57:28.011Z,100241.77
2019-03-05T12:00:03.238Z,100267.59
2019-03-05T12:02:39.523Z,100256.56
2019-03-05T12:05:15.323Z,100259.23
2019-03-05T12:07:50.176Z,100260.71
2019-03-05T12:10:25.550Z,100267.70
2019-03-05T12:13:05.952Z,100264.08
2019-03-05T12:15:43.288Z,100276.70
2019-03-05T12:18:19.147Z,100279.78
2019-03-05T12:20:56.534Z,100271.78
2019-03-05T12:23:33.100Z,100285.04
2019-03-05T12:26:08.898Z,100283.56
2019-03-05T12:28:46.451Z,100280.02
2019-03-05T12:31:22.226Z,100287.60
2019-03-05T12:33:57.736Z,100287.33
2019-03-05T12:36:33.007Z,100286.95
2019-03-05T12:39:09.961Z,100308.22
2019-03-05T12:41:46.980Z,100298.56
2019-03-05T12:44:22.338Z,100303.36
2019-03-05T12:46:58.387Z,100297.13
2019-03-05T12:49:33.860Z,100299.95
2019-03-05T12:52:09.657Z,100306.78
2019-03-05T12:54:44.623Z,100306.88
2019-03-05T12:57:20.928Z,100308.42
2019-03-05T12:59:55.841Z,100309.30
2019-03-05T13:02:32.078Z,100313.00
2019-03-05T13:05:10.135Z,100325.02
2019-03-05T13:07:45.964Z,100315.48
2019-03-05T13:10:23.317Z,100317.34
2019-03-05T13:12:59.673Z,100318.61
2019-03-05T13:15:35.342Z,100326.97
2019-03-05T13:18:14.202Z,100327.31
2019-03-05T13:20:47.010Z,100330.87
2019-03-05T13:23:22.108Z,100342.36
2019-03-05T13:25:57.083Z,100337.78
2019-03-05T13:28:31.986Z,100340.44
2019-03-05T13:31:06.752Z,100341.36
2019-03-05T13:33:42.170Z,100339.40
2019-03-05T13:36:17.243Z,100345.74
2019-03-05T13:38:52.185Z,100350.41
2019-03-05T13:41:27.277Z,100340.97
2019-03-05T13:44:05.261Z,100351.58
2019-03-05T13:46:40.220Z,100352.24
2019-03-05T13:50:08.460Z,100355.30
2019-03-05T13:53:22.939Z,100364.09
2019-03-05T13:56:42.243Z,100367.52
2019-03-05T13:59:45.277Z,100370.97
2019-03-05T14:02:30.161Z,100372.63
2019-03-05T14:05:31.142Z,100370.52
2019-03-05T14:09:20.828Z,100385.29
2019-03-05T14:11:55.887Z,100376.80
2019-03-05T14:14:31.811Z,100382.86
2019-03-05T14:17:21.295Z,100392.31
2019-03-05T14:19:56.177Z,100385.27
2019-03-05T14:22:31.230Z,100382.55
2019-03-05T14:25:08.677Z,100385.00
2019-03-05T14:27:47.055Z,100394.30
2019-03-05T14:30:22.876Z,100397.65
2019-03-05T14:32:57.721Z,100401.53
2019-03-05T14:35:34.219Z,100396.05
2019-03-05T14:38:09.018Z,100406.30
2019-03-05T14:40:44.138Z,100411.30
2019-03-05T14:43:19.000Z,100413.41
2019-03-05T14:45:56.502Z,100419.41
2019-03-05T14:48:31.474Z,100419.95
2019-03-05T14:51:06.356Z,100423.72
2019-03-05T14:53:43.907Z,100421.48
2019-03-05T14:56:20.238Z,100428.95
2019-03-05T14:58:55.110Z,100431.79
2019-03-05T15:01:30.191Z,100434.53
2019-03-05T15:04:05.199Z,100431.75
2019-03-05T15:06:40.060Z,100430.00
2019-03-05T15:09:14.861Z,100431.30
2019-03-05T15:11:50.002Z,100447.63
2019-03-05T15:14:26.160Z,100434.63
2019-03-05T15:17:01.085Z,100441.36
2019-03-05T15:19:36.195Z,100436.72
2019-03-05T15:22:13.159Z,100440.68
2019-03-05T15:24:48.082Z,100441.50
2019-03-05T15:27:23.296Z,100441.20
2019-03-05T15:29:58.257Z,100443.31
2019-03-05T15:32:33.368Z,100448.44
2019-03-05T15:35:08.554Z,100448.70
2019-03-05T15:37:43.555Z,100455.52
2019-03-05T15:40:19.450Z,100455.83
2019-03-05T15:42:54.479Z,100459.23
2019-03-05T15:45:29.362Z,100465.97
2019-03-05T15:48:04.313Z,100467.72
2019-03-05T15:50:40.186Z,100468.23
2019-03-05T15:53:15.043Z,100474.14
2019-03-05T15:55:49.909Z,100472.55
2019-03-05T15:58:24.946Z,100488.13
2019-03-05T16:00:59.943Z,100481.36
2019-03-05T16:03:35.088Z,100493.33
2019-03-05T16:06:09.970Z,100493.09
2019-03-05T16:08:45.986Z,100493.52
2019-03-05T16:11:20.867Z,100497.64
2019-03-05T16:13:58.436Z,100497.84
2019-03-05T16:16:33.645Z,100494.75
2019-03-05T16:19:12.365Z,100506.62
2019-03-05T16:21:48.950Z,100500.63
2019-03-05T16:24:23.965Z,100505.27
2019-03-05T16:26:59.208Z,100510.97
2019-03-05T16:34:09.523Z,100513.80
2019-03-05T16:37:21.257Z,100524.23
2019-03-05T16:40:35.175Z,100523.88
2019-03-05T16:43:24.131Z,100535.53
2019-03-05T16:46:22.936Z,100531.59
2019-03-05T16:49:29.894Z,100537.83
2019-03-05T16:52:16.343Z,100546.28
2019-03-05T16:55:03.391Z,100546.54
2019-03-05T16:57:59.131Z,100549.14
2019-03-05T17:05:09.840Z,100559.09
2019-03-05T17:07:55.333Z,100561.91
2019-03-05T17:10:58.040Z,100569.57
2019-03-05T17:13:35.463Z,100576.62
2019-03-05T17:16:10.553Z,100584.12
2019-03-05T17:18:46.723Z,100587.75
2019-03-05T17:21:27.425Z,100585.52
2019-03-05T17:23:58.512Z,100586.28
2019-03-05T17:26:33.562Z,100594.98
2019-03-05T17:29:12.515Z,100599.70
2019-03-05T17:31:50.781Z,100600.48
2019-03-05T17:34:37.007Z,100608.98
2019-03-05T17:37:13.001Z,100610.16
2019-03-05T17:39:48.087Z,100614.08
2019-03-05T17:42:23.360Z,100625.67
2019-03-05T17:44:58.310Z,100623.39
2019-03-05T17:47:33.376Z,100629.77
2019-03-05T17:50:11.281Z,100635.24
2019-03-05T17:52:46.497Z,100641.03
2019-03-05T17:55:24.691Z,100648.14
2019-03-05T17:57:59.441Z,100651.09
2019-03-05T18:00:36.930Z,100647.47
2019-03-05T18:03:12.582Z,100658.44
2019-03-05T18:05:47.619Z,100660.95
2019-03-05T18:08:22.633Z,100665.16
2019-03-05T18:10:57.650Z,100665.39
2019-03-05T18:13:32.620Z,100672.78
2019-03-05T18:16:07.888Z,100673.75
2019-03-05T18:18:42.774Z,100678.19
2019-03-05T18:21:17.712Z,100679.60
2019-03-05T18:23:54.315Z,100681.80
2019-03-05T18:26:29.083Z,100687.78
2019-03-05T18:29:03.920Z,100692.59
2019-03-05T18:31:38.807Z,100697.55
2019-03-05T18:34:13.821Z,100698.42
2019-03-05T18:36:49.649Z,100704.17
2019-03-05T18:39:24.834Z,100708.57
2019-03-05T18:41:59.725Z,100710.97
2019-03-05T18:44:34.680Z,100709.48
2019-03-05T18:47:09.489Z,100713.80
2019-03-05T18:49:44.331Z,100718.53
2019-03-05T18:52:19.175Z,100720.57
2019-03-05T18:54:54.117Z,100724.81
2019-03-05T18:57:29.017Z,100722.93
2019-03-05T19:00:04.769Z,100720.20
2019-03-05T19:02:41.313Z,100725.79
2019-03-05T19:05:17.402Z,100723.77
2019-03-05T19:07:52.390Z,100726.58
2019-03-05T19:10:27.371Z,100728.37
2019-03-05T19:13:02.356Z,100731.05
2019-03-05T19:15:37.213Z,100739.35
2019-03-05T19:18:12.228Z,100741.69
2019-03-05T19:20:47.105Z,100742.91
2019-03-05T19:23:22.033Z,100739.42
2019-03-05T19:25:56.919Z,100748.98
2019-03-05T19:28:31.854Z,100745.41
2019-03-05T19:31:07.023Z,100759.67
2019-03-05T19:33:43.701Z,100750.70
2019-03-05T19:36:18.716Z,100756.75
2019-03-05T19:38:53.668Z,100762.78
2019-03-05T19:41:28.561Z,100757.76
2019-03-05T19:44:03.761Z,100763.56
2019-03-05T19:46:38.631Z,100769.59
2019-03-05T19:49:13.524Z,100773.56
2019-03-05T19:51:48.436Z,100775.04
2019-03-05T19:54:23.359Z,100785.55
2019-03-05T19:56:58.155Z,100792.20
2019-03-05T19:59:33.200Z,100792.53
2019-03-05T20:02:08.363Z,100790.61
2019-03-05T20:04:43.289Z,100796.30
2019-03-05T20:07:18.432Z,100806.09
2019-03-05T20:09:53.379Z,100803.66
2019-03-05T20:12:28.368Z,100801.16
2019-03-05T20:15:03.485Z,100806.09
2019-03-05T20:17:38.398Z,100808.53
2019-03-05T20:20:13.866Z,100812.39
2019-03-05T20:22:49.733Z,100803.35
2019-03-05T20:25:24.617Z,100802.39
2019-03-05T20:27:59.826Z,100806.25
2019-03-05T20:30:36.642Z,100801.11
2019-03-05T20:33:11.684Z,100806.47
2019-03-05T20:35:47.036Z,100808.03
2019-03-05T20:38:33.926Z,100807.80
2019-03-05T20:41:10.863Z,100813.78
2019-03-05T20:43:45.760Z,100811.50
2019-03-05T20:46:27.971Z,100821.58
2019-03-05T20:49:04.610Z,100828.28
2019-03-05T20:51:39.681Z,100829.13
2019-03-05T20:54:14.506Z,100831.34
2019-03-05T20:56:49.554Z,100840.69
2019-03-05T20:59:24.518Z,100834.45
2019-03-05T21:01:59.657Z,100828.80
2019-03-05T21:04:35.564Z,100836.23
2019-03-05T21:07:11.634Z,100836.67
2019-03-05T21:09:46.860Z,100849.07
2019-03-05T21:12:21.950Z,100847.78
2019-03-05T21:14:56.871Z,100849.08
2019-03-05T21:17:32.028Z,100846.28
2019-03-05T21:20:08.515Z,100850.09
2019-03-05T21:22:53.288Z,100853.05
2019-03-05T21:25:46.250Z,100852.07
2019-03-05T21:28:21.505Z,100860.48
2019-03-05T21:30:56.394Z,100855.49
2019-03-05T21:33:31.773Z,100849.59
2019-03-05T21:36:07.575Z,100857.61
2019-03-05T21:38:42.552Z,100852.89
2019-03-05T21:41:17.522Z,100845.80
2019-03-05T21:43:52.523Z,100848.59
2019-03-05T21:46:27.488Z,100850.52
2019-03-05T21:49:02.629Z,100846.62
2019-03-05T21:51:38.420Z,100847.31
2019-03-05T21:54:13.375Z,100852.51
2019-03-05T21:56:48.240Z,100850.89
2019-03-05T21:59:23.881Z,100848.92
2019-03-05T22:01:58.830Z,100847.91
2019-03-05T22:04:33.770Z,100852.12
2019-03-05T22:07:08.756Z,100849.72
2019-03-05T22:09:43.672Z,100849.41
2019-03-05T22:12:18.612Z,100858.11
2019-03-05T22:14:54.376Z,100856.59
2019-03-05T22:17:29.354Z,100864.19
2019-03-05T22:20:04.481Z,100855.58
2019-03-05T22:22:39.334Z,100857.50
2019-03-05T22:25:16.954Z,100861.98
2019-03-05T22:27:51.812Z,100857.10
2019-03-05T22:30:28.884Z,100862.41
2019-03-05T22:33:03.866Z,100856.08
2019-03-05T22:35:38.637Z,100859.09
2019-03-05T22:38:13.514Z,100863.19
2019-03-05T22:40:48.281Z,100856.80
2019-03-05T22:43:23.427Z,100860.21
2019-03-05T22:45:58.222Z,100858.28
2019-03-05T22:48:33.333Z,100860.21
2019-03-05T22:51:08.202Z,100865.58
2019-03-05T22:53:43.162Z,100864.78
2019-03-05T22:56:18.515Z,100868.80
2019-03-05T22:58:53.386Z,100866.59
2019-03-05T23:01:38.952Z,100871.40
2019-03-05T23:04:19.030Z,100866.00
2019-03-05T23:06:54.930Z,100866.20
2019-03-05T23:09:30.015Z,100869.08
2019-03-05T23:12:05.670Z,100866.59
2019-03-05T23:14:40.980Z,100862.29
2019-03-05T23:17:17.288Z,100869.19
2019-03-05T23:19:52.232Z,100874.56
2019-03-05T23:22:27.180Z,100865.80
2019-03-05T23:25:02.060Z,100869.08
2019-03-05T23:27:38.444Z,100865.06
2019-03-05T23:30:14.666Z,100868.56
2019-03-05T23:32:52.720Z,100870.77
2019-03-05T23:35:27.622Z,100865.97
2019-03-05T23:38:02.503Z,100862.06
2019-03-05T23:40:38.422Z,100866.59
2019-03-05T23:43:13.539Z,100865.77
2019-03-05T23:45:48.382Z,100862.38
2019-03-05T23:48:23.246Z,100864.16
2019-03-05T23:50:59.000Z,100862.66
2019-03-05T23:53:33.912Z,100858.48
2019-03-05T23:56:08.738Z,100862.66
2019-03-05T23:58:43.650Z,100858.77
